Terminal Aerodrome Forecast
Issued by NWS Denver/Boulder, CO

Home | Current Version | Previous Version | Text Only | Print | Product List | Glossary On
Versions: 1 2 3 4 5 6 7 8 9 10 11 12 13 14 15 16 17 18 19 20 21 22 23 24 25 26 27 28 29 30 31 32 33 34 35 36 37 38 39 40 41 42 43 44 45 46 47 48 49 50
000
FTUS45 KBOU 300856 AAA
TAFDEN
TAF AMD
KDEN 300856Z 3009/3112 06007KT P6SM VCSH SCT005 BKN025 OVC040
      TEMPO 3009/3012 5SM -RA BR BKN005 OVC012
     FM301200 04007KT P6SM FEW007 BKN015 OVC035
      TEMPO 3012/3014 3SM -SHRA BR BKN006 OVC014
     FM301500 04012KT P6SM FEW006 BKN012 OVC030
      TEMPO 3015/3017 4SM SHRA BR BKN008 OVC016
     FM301900 02012KT P6SM SCT025 OVC035
      TEMPO 3020/3024 -TSRA BKN025CB
     FM310000 35008KT P6SM SCT035 BKN060 PROB30 3100/3105 -SHRA
      BKN040
     FM310600 22008KT P6SM SCT045 BKN080=

USA.gov is the U.S. government's official web portal to all federal, state and local government web resources and services.